sensor_id;sensor_type;location;lat;lon;timestamp;P1;durP1;ratioP1;P2;durP2;ratioP2
8964;SDS011;4517;49.020;12.066;2024-02-28T00:02:09;37.03;;;30.13;;
8964;SDS011;4517;49.020;12.066;2024-02-28T00:04:35;32.87;;;29.10;;
8964;SDS011;4517;49.020;12.066;2024-02-28T00:07:01;38.57;;;29.47;;
8964;SDS011;4517;49.020;12.066;2024-02-28T00:09:27;33.70;;;28.50;;
8964;SDS011;4517;49.020;12.066;2024-02-28T00:11:53;32.20;;;28.80;;
8964;SDS011;4517;49.020;12.066;2024-02-28T00:14:19;35.37;;;29.27;;
8964;SDS011;4517;49.020;12.066;2024-02-28T00:16:45;34.03;;;29.33;;
8964;SDS011;4517;49.020;12.066;2024-02-28T00:19:12;35.27;;;29.10;;
8964;SDS011;4517;49.020;12.066;2024-02-28T00:21:39;30.67;;;27.30;;
8964;SDS011;4517;49.020;12.066;2024-02-28T00:24:05;36.23;;;29.37;;
8964;SDS011;4517;49.020;12.066;2024-02-28T00:26:31;33.20;;;28.27;;
8964;SDS011;4517;49.020;12.066;2024-02-28T00:28:57;37.90;;;29.80;;
8964;SDS011;4517;49.020;12.066;2024-02-28T00:31:23;36.13;;;29.67;;
8964;SDS011;4517;49.020;12.066;2024-02-28T00:33:49;39.20;;;31.00;;
8964;SDS011;4517;49.020;12.066;2024-02-28T00:36:15;40.53;;;30.47;;
8964;SDS011;4517;49.020;12.066;2024-02-28T00:38:41;39.37;;;30.00;;
8964;SDS011;4517;49.020;12.066;2024-02-28T00:41:07;32.37;;;28.97;;
8964;SDS011;4517;49.020;12.066;2024-02-28T00:43:33;38.03;;;32.30;;
8964;SDS011;4517;49.020;12.066;2024-02-28T00:45:59;32.40;;;28.93;;
8964;SDS011;4517;49.020;12.066;2024-02-28T00:48:25;38.23;;;30.00;;
8964;SDS011;4517;49.020;12.066;2024-02-28T00:50:51;35.47;;;29.47;;
8964;SDS011;4517;49.020;12.066;2024-02-28T00:53:18;33.53;;;29.77;;
8964;SDS011;4517;49.020;12.066;2024-02-28T00:55:44;33.30;;;29.70;;
8964;SDS011;4517;49.020;12.066;2024-02-28T00:58:10;37.73;;;30.93;;
8964;SDS011;4517;49.020;12.066;2024-02-28T01:00:36;32.87;;;29.20;;
8964;SDS011;4517;49.020;12.066;2024-02-28T01:03:02;35.40;;;30.17;;
8964;SDS011;4517;49.020;12.066;2024-02-28T01:05:33;35.90;;;30.13;;
8964;SDS011;4517;49.020;12.066;2024-02-28T01:08:00;38.17;;;30.63;;
8964;SDS011;4517;49.020;12.066;2024-02-28T01:10:26;37.27;;;30.93;;
8964;SDS011;4517;49.020;12.066;2024-02-28T01:12:52;38.10;;;32.30;;
8964;SDS011;4517;49.020;12.066;2024-02-28T01:15:18;46.40;;;33.63;;
8964;SDS011;4517;49.020;12.066;2024-02-28T01:17:44;34.60;;;30.87;;
8964;SDS011;4517;49.020;12.066;2024-02-28T01:20:10;36.90;;;31.67;;
8964;SDS011;4517;49.020;12.066;2024-02-28T01:22:36;43.37;;;30.77;;
8964;SDS011;4517;49.020;12.066;2024-02-28T01:25:02;41.77;;;30.67;;
8964;SDS011;4517;49.020;12.066;2024-02-28T01:27:28;45.97;;;32.60;;
8964;SDS011;4517;49.020;12.066;2024-02-28T01:29:54;38.33;;;30.97;;
8964;SDS011;4517;49.020;12.066;2024-02-28T01:32:20;37.47;;;31.03;;
8964;SDS011;4517;49.020;12.066;2024-02-28T01:34:46;37.67;;;30.13;;
8964;SDS011;4517;49.020;12.066;2024-02-28T01:37:12;37.00;;;29.87;;
8964;SDS011;4517;49.020;12.066;2024-02-28T01:39:38;36.33;;;29.83;;
8964;SDS011;4517;49.020;12.066;2024-02-28T01:42:04;37.60;;;29.67;;
8964;SDS011;4517;49.020;12.066;2024-02-28T01:44:30;38.13;;;31.90;;
8964;SDS011;4517;49.020;12.066;2024-02-28T01:46:56;35.30;;;30.13;;
8964;SDS011;4517;49.020;12.066;2024-02-28T01:49:23;41.13;;;31.30;;
8964;SDS011;4517;49.020;12.066;2024-02-28T01:51:49;33.83;;;30.33;;
8964;SDS011;4517;49.020;12.066;2024-02-28T01:54:16;42.23;;;29.90;;
8964;SDS011;4517;49.020;12.066;2024-02-28T01:56:42;42.37;;;32.20;;
8964;SDS011;4517;49.020;12.066;2024-02-28T01:59:09;36.37;;;29.43;;
8964;SDS011;4517;49.020;12.066;2024-02-28T02:01:36;34.30;;;29.70;;
8964;SDS011;4517;49.020;12.066;2024-02-28T02:04:03;35.40;;;28.77;;
8964;SDS011;4517;49.020;12.066;2024-02-28T02:06:29;39.87;;;28.97;;
8964;SDS011;4517;49.020;12.066;2024-02-28T02:08:55;37.20;;;29.37;;
8964;SDS011;4517;49.020;12.066;2024-02-28T02:11:21;34.70;;;28.70;;
8964;SDS011;4517;49.020;12.066;2024-02-28T02:13:51;35.90;;;27.90;;
8964;SDS011;4517;49.020;12.066;2024-02-28T02:16:18;33.80;;;28.07;;
8964;SDS011;4517;49.020;12.066;2024-02-28T02:18:45;30.70;;;27.40;;
8964;SDS011;4517;49.020;12.066;2024-02-28T02:21:11;33.77;;;28.50;;
8964;SDS011;4517;49.020;12.066;2024-02-28T02:23:38;35.73;;;26.83;;
8964;SDS011;4517;49.020;12.066;2024-02-28T02:26:06;35.97;;;27.90;;
8964;SDS011;4517;49.020;12.066;2024-02-28T02:28:32;33.13;;;28.30;;
8964;SDS011;4517;49.020;12.066;2024-02-28T02:30:58;35.67;;;28.03;;
8964;SDS011;4517;49.020;12.066;2024-02-28T02:33:24;36.20;;;26.40;;
8964;SDS011;4517;49.020;12.066;2024-02-28T02:35:51;33.03;;;26.80;;
8964;SDS011;4517;49.020;12.066;2024-02-28T02:38:17;34.37;;;28.03;;
8964;SDS011;4517;49.020;12.066;2024-02-28T02:40:43;29.47;;;26.33;;
8964;SDS011;4517;49.020;12.066;2024-02-28T02:43:10;33.20;;;25.90;;
8964;SDS011;4517;49.020;12.066;2024-02-28T02:45:36;34.20;;;27.07;;
8964;SDS011;4517;49.020;12.066;2024-02-28T02:48:02;30.07;;;25.93;;
8964;SDS011;4517;49.020;12.066;2024-02-28T02:50:28;35.10;;;27.10;;
8964;SDS011;4517;49.020;12.066;2024-02-28T02:52:54;32.10;;;27.87;;
8964;SDS011;4517;49.020;12.066;2024-02-28T02:55:20;28.50;;;25.03;;
8964;SDS011;4517;49.020;12.066;2024-02-28T02:57:46;33.73;;;25.87;;
8964;SDS011;4517;49.020;12.066;2024-02-28T03:00:12;34.27;;;27.17;;
8964;SDS011;4517;49.020;12.066;2024-02-28T03:02:38;32.40;;;26.37;;
8964;SDS011;4517;49.020;12.066;2024-02-28T03:05:05;31.93;;;26.20;;
8964;SDS011;4517;49.020;12.066;2024-02-28T03:07:31;32.87;;;25.83;;
8964;SDS011;4517;49.020;12.066;2024-02-28T03:09:57;33.27;;;27.03;;
8964;SDS011;4517;49.020;12.066;2024-02-28T03:12:23;33.20;;;27.50;;
8964;SDS011;4517;49.020;12.066;2024-02-28T03:14:49;30.17;;;25.77;;
8964;SDS011;4517;49.020;12.066;2024-02-28T03:17:15;31.93;;;24.87;;
8964;SDS011;4517;49.020;12.066;2024-02-28T03:19:41;33.53;;;27.37;;
8964;SDS011;4517;49.020;12.066;2024-02-28T03:22:07;31.80;;;25.90;;
8964;SDS011;4517;49.020;12.066;2024-02-28T03:24:33;32.53;;;25.40;;
8964;SDS011;4517;49.020;12.066;2024-02-28T03:27:00;34.57;;;26.70;;
8964;SDS011;4517;49.020;12.066;2024-02-28T03:29:26;33.83;;;27.37;;
8964;SDS011;4517;49.020;12.066;2024-02-28T03:31:52;33.53;;;26.10;;
8964;SDS011;4517;49.020;12.066;2024-02-28T03:34:18;33.43;;;27.70;;
8964;SDS011;4517;49.020;12.066;2024-02-28T03:36:44;31.30;;;27.23;;
8964;SDS011;4517;49.020;12.066;2024-02-28T03:39:11;30.77;;;26.73;;
8964;SDS011;4517;49.020;12.066;2024-02-28T03:41:37;29.17;;;25.87;;
8964;SDS011;4517;49.020;12.066;2024-02-28T03:44:03;42.53;;;25.53;;
8964;SDS011;4517;49.020;12.066;2024-02-28T03:46:29;33.70;;;25.97;;
8964;SDS011;4517;49.020;12.066;2024-02-28T03:48:55;34.80;;;26.70;;
8964;SDS011;4517;49.020;12.066;2024-02-28T03:51:21;30.93;;;25.60;;
8964;SDS011;4517;49.020;12.066;2024-02-28T03:53:47;34.47;;;26.73;;
8964;SDS011;4517;49.020;12.066;2024-02-28T03:56:13;34.87;;;25.40;;
8964;SDS011;4517;49.020;12.066;2024-02-28T03:58:40;31.27;;;26.60;;
8964;SDS011;4517;49.020;12.066;2024-02-28T04:01:06;32.73;;;27.10;;
8964;SDS011;4517;49.020;12.066;2024-02-28T04:03:32;34.07;;;27.23;;
8964;SDS011;4517;49.020;12.066;2024-02-28T04:05:58;33.60;;;27.33;;
8964;SDS011;4517;49.020;12.066;2024-02-28T04:08:24;32.60;;;26.20;;
8964;SDS011;4517;49.020;12.066;2024-02-28T04:10:50;28.90;;;25.17;;
8964;SDS011;4517;49.020;12.066;2024-02-28T04:13:16;31.07;;;26.73;;
8964;SDS011;4517;49.020;12.066;2024-02-28T04:15:42;31.53;;;26.87;;
8964;SDS011;4517;49.020;12.066;2024-02-28T04:18:10;35.17;;;27.37;;
8964;SDS011;4517;49.020;12.066;2024-02-28T04:20:36;32.90;;;26.50;;
8964;SDS011;4517;49.020;12.066;2024-02-28T04:23:03;32.70;;;26.77;;
8964;SDS011;4517;49.020;12.066;2024-02-28T04:25:29;39.50;;;25.67;;
8964;SDS011;4517;49.020;12.066;2024-02-28T04:27:55;31.37;;;26.50;;
8964;SDS011;4517;49.020;12.066;2024-02-28T04:30:22;31.27;;;25.73;;
8964;SDS011;4517;49.020;12.066;2024-02-28T04:32:48;40.60;;;26.20;;
8964;SDS011;4517;49.020;12.066;2024-02-28T04:35:14;31.20;;;24.83;;
8964;SDS011;4517;49.020;12.066;2024-02-28T04:37:43;31.00;;;26.03;;
8964;SDS011;4517;49.020;12.066;2024-02-28T04:40:09;31.23;;;26.60;;
8964;SDS011;4517;49.020;12.066;2024-02-28T04:42:35;27.07;;;24.13;;
8964;SDS011;4517;49.020;12.066;2024-02-28T04:45:01;32.77;;;25.60;;
8964;SDS011;4517;49.020;12.066;2024-02-28T04:47:27;27.80;;;22.47;;
8964;SDS011;4517;49.020;12.066;2024-02-28T04:49:54;31.40;;;26.17;;
8964;SDS011;4517;49.020;12.066;2024-02-28T04:52:20;33.60;;;25.90;;
8964;SDS011;4517;49.020;12.066;2024-02-28T04:54:46;34.30;;;25.93;;
8964;SDS011;4517;49.020;12.066;2024-02-28T04:57:12;31.30;;;25.10;;
8964;SDS011;4517;49.020;12.066;2024-02-28T04:59:37;33.50;;;27.07;;
8964;SDS011;4517;49.020;12.066;2024-02-28T05:02:03;31.57;;;25.00;;
8964;SDS011;4517;49.020;12.066;2024-02-28T05:04:30;36.00;;;26.70;;
8964;SDS011;4517;49.020;12.066;2024-02-28T05:06:56;31.27;;;25.20;;
8964;SDS011;4517;49.020;12.066;2024-02-28T05:09:22;34.00;;;26.57;;
8964;SDS011;4517;49.020;12.066;2024-02-28T05:11:47;32.20;;;26.17;;
8964;SDS011;4517;49.020;12.066;2024-02-28T05:14:13;32.43;;;26.10;;
8964;SDS011;4517;49.020;12.066;2024-02-28T05:16:43;29.10;;;23.80;;
8964;SDS011;4517;49.020;12.066;2024-02-28T05:19:09;30.93;;;25.07;;
8964;SDS011;4517;49.020;12.066;2024-02-28T05:21:41;35.87;;;26.93;;
8964;SDS011;4517;49.020;12.066;2024-02-28T05:24:07;31.17;;;26.03;;
8964;SDS011;4517;49.020;12.066;2024-02-28T05:26:37;31.27;;;25.90;;
8964;SDS011;4517;49.020;12.066;2024-02-28T05:29:03;34.70;;;26.53;;
8964;SDS011;4517;49.020;12.066;2024-02-28T05:31:29;33.73;;;26.50;;
8964;SDS011;4517;49.020;12.066;2024-02-28T05:33:57;31.50;;;25.53;;
8964;SDS011;4517;49.020;12.066;2024-02-28T05:36:23;29.53;;;24.07;;
8964;SDS011;4517;49.020;12.066;2024-02-28T05:38:50;29.60;;;25.20;;
8964;SDS011;4517;49.020;12.066;2024-02-28T05:41:16;30.23;;;25.30;;
8964;SDS011;4517;49.020;12.066;2024-02-28T05:43:43;29.30;;;26.30;;
8964;SDS011;4517;49.020;12.066;2024-02-28T05:46:09;28.80;;;25.43;;
8964;SDS011;4517;49.020;12.066;2024-02-28T05:48:35;28.67;;;25.20;;
8964;SDS011;4517;49.020;12.066;2024-02-28T05:51:01;31.70;;;25.27;;
8964;SDS011;4517;49.020;12.066;2024-02-28T05:53:28;27.57;;;24.17;;
8964;SDS011;4517;49.020;12.066;2024-02-28T05:55:57;29.77;;;25.77;;
8964;SDS011;4517;49.020;12.066;2024-02-28T05:58:23;26.47;;;23.67;;
8964;SDS011;4517;49.020;12.066;2024-02-28T06:00:50;28.50;;;24.63;;
8964;SDS011;4517;49.020;12.066;2024-02-28T06:03:16;30.20;;;24.67;;
8964;SDS011;4517;49.020;12.066;2024-02-28T06:05:42;27.83;;;24.73;;
8964;SDS011;4517;49.020;12.066;2024-02-28T06:08:08;28.27;;;25.17;;
8964;SDS011;4517;49.020;12.066;2024-02-28T06:10:34;35.30;;;29.00;;
8964;SDS011;4517;49.020;12.066;2024-02-28T06:13:00;30.37;;;27.00;;
8964;SDS011;4517;49.020;12.066;2024-02-28T06:15:26;32.87;;;25.97;;
8964;SDS011;4517;49.020;12.066;2024-02-28T06:17:52;33.10;;;27.00;;
8964;SDS011;4517;49.020;12.066;2024-02-28T06:20:18;31.10;;;26.17;;
8964;SDS011;4517;49.020;12.066;2024-02-28T06:22:44;31.83;;;26.77;;
8964;SDS011;4517;49.020;12.066;2024-02-28T06:25:10;30.57;;;24.93;;
8964;SDS011;4517;49.020;12.066;2024-02-28T06:27:43;30.23;;;23.87;;
8964;SDS011;4517;49.020;12.066;2024-02-28T06:30:10;29.87;;;24.70;;
8964;SDS011;4517;49.020;12.066;2024-02-28T06:32:37;30.93;;;25.97;;
8964;SDS011;4517;49.020;12.066;2024-02-28T06:35:03;26.30;;;23.60;;
8964;SDS011;4517;49.020;12.066;2024-02-28T06:37:29;33.23;;;25.53;;
8964;SDS011;4517;49.020;12.066;2024-02-28T06:39:55;29.37;;;25.23;;
8964;SDS011;4517;49.020;12.066;2024-02-28T06:42:21;33.83;;;25.27;;
8964;SDS011;4517;49.020;12.066;2024-02-28T06:44:47;32.50;;;26.37;;
8964;SDS011;4517;49.020;12.066;2024-02-28T06:47:13;33.53;;;29.57;;
8964;SDS011;4517;49.020;12.066;2024-02-28T06:49:39;28.90;;;24.47;;
8964;SDS011;4517;49.020;12.066;2024-02-28T06:52:05;29.80;;;22.57;;
8964;SDS011;4517;49.020;12.066;2024-02-28T06:54:31;31.60;;;25.80;;
8964;SDS011;4517;49.020;12.066;2024-02-28T06:56:57;32.40;;;25.60;;
8964;SDS011;4517;49.020;12.066;2024-02-28T06:59:23;25.87;;;23.10;;
8964;SDS011;4517;49.020;12.066;2024-02-28T07:01:49;27.87;;;25.03;;
8964;SDS011;4517;49.020;12.066;2024-02-28T07:04:15;29.20;;;25.07;;
8964;SDS011;4517;49.020;12.066;2024-02-28T07:06:42;28.63;;;25.53;;
8964;SDS011;4517;49.020;12.066;2024-02-28T07:09:08;30.87;;;25.57;;
8964;SDS011;4517;49.020;12.066;2024-02-28T07:11:34;28.10;;;24.23;;
8964;SDS011;4517;49.020;12.066;2024-02-28T07:14:00;29.63;;;24.20;;
8964;SDS011;4517;49.020;12.066;2024-02-28T07:16:27;34.50;;;24.73;;
8964;SDS011;4517;49.020;12.066;2024-02-28T07:18:53;28.40;;;24.07;;
8964;SDS011;4517;49.020;12.066;2024-02-28T07:21:19;28.17;;;24.53;;
8964;SDS011;4517;49.020;12.066;2024-02-28T07:23:45;31.10;;;24.00;;
8964;SDS011;4517;49.020;12.066;2024-02-28T07:26:15;28.40;;;24.00;;
8964;SDS011;4517;49.020;12.066;2024-02-28T07:28:41;26.73;;;23.53;;
8964;SDS011;4517;49.020;12.066;2024-02-28T07:31:07;28.97;;;24.30;;
8964;SDS011;4517;49.020;12.066;2024-02-28T07:33:33;26.27;;;22.43;;
8964;SDS011;4517;49.020;12.066;2024-02-28T07:35:59;30.00;;;24.00;;
8964;SDS011;4517;49.020;12.066;2024-02-28T07:38:26;25.40;;;22.07;;
8964;SDS011;4517;49.020;12.066;2024-02-28T07:40:52;25.47;;;22.53;;
8964;SDS011;4517;49.020;12.066;2024-02-28T07:43:18;24.13;;;21.60;;
8964;SDS011;4517;49.020;12.066;2024-02-28T07:45:44;31.03;;;23.97;;
8964;SDS011;4517;49.020;12.066;2024-02-28T07:48:10;25.73;;;22.43;;
8964;SDS011;4517;49.020;12.066;2024-02-28T07:50:37;26.80;;;23.80;;
8964;SDS011;4517;49.020;12.066;2024-02-28T07:53:03;27.00;;;22.50;;
8964;SDS011;4517;49.020;12.066;2024-02-28T07:55:29;26.23;;;23.50;;
8964;SDS011;4517;49.020;12.066;2024-02-28T07:57:55;26.13;;;23.43;;
8964;SDS011;4517;49.020;12.066;2024-02-28T08:00:21;26.70;;;22.47;;
8964;SDS011;4517;49.020;12.066;2024-02-28T08:02:47;24.13;;;21.20;;
8964;SDS011;4517;49.020;12.066;2024-02-28T08:05:13;28.27;;;24.10;;
8964;SDS011;4517;49.020;12.066;2024-02-28T08:07:40;24.83;;;22.30;;
8964;SDS011;4517;49.020;12.066;2024-02-28T08:10:06;25.93;;;21.83;;
8964;SDS011;4517;49.020;12.066;2024-02-28T08:12:32;27.07;;;24.23;;
8964;SDS011;4517;49.020;12.066;2024-02-28T08:14:58;26.97;;;22.27;;
8964;SDS011;4517;49.020;12.066;2024-02-28T08:17:24;29.70;;;25.40;;
8964;SDS011;4517;49.020;12.066;2024-02-28T08:19:50;24.50;;;21.93;;
8964;SDS011;4517;49.020;12.066;2024-02-28T08:22:16;24.63;;;22.07;;
8964;SDS011;4517;49.020;12.066;2024-02-28T08:24:41;26.27;;;23.40;;
8964;SDS011;4517;49.020;12.066;2024-02-28T08:27:07;25.80;;;22.37;;
8964;SDS011;4517;49.020;12.066;2024-02-28T08:29:33;30.13;;;23.83;;
8964;SDS011;4517;49.020;12.066;2024-02-28T08:32:00;25.40;;;22.70;;
8964;SDS011;4517;49.020;12.066;2024-02-28T08:34:27;25.23;;;22.43;;
8964;SDS011;4517;49.020;12.066;2024-02-28T08:36:53;24.97;;;22.30;;
8964;SDS011;4517;49.020;12.066;2024-02-28T08:39:19;27.73;;;21.67;;
8964;SDS011;4517;49.020;12.066;2024-02-28T08:41:45;24.27;;;21.73;;
8964;SDS011;4517;49.020;12.066;2024-02-28T08:44:11;29.00;;;22.87;;
8964;SDS011;4517;49.020;12.066;2024-02-28T08:46:37;25.50;;;22.83;;
8964;SDS011;4517;49.020;12.066;2024-02-28T08:49:03;31.03;;;24.70;;
8964;SDS011;4517;49.020;12.066;2024-02-28T08:51:29;24.80;;;21.73;;
8964;SDS011;4517;49.020;12.066;2024-02-28T08:53:55;34.97;;;31.87;;
8964;SDS011;4517;49.020;12.066;2024-02-28T08:56:22;24.27;;;21.37;;
8964;SDS011;4517;49.020;12.066;2024-02-28T08:58:48;24.73;;;22.13;;
8964;SDS011;4517;49.020;12.066;2024-02-28T09:01:14;24.43;;;21.93;;
8964;SDS011;4517;49.020;12.066;2024-02-28T09:03:40;26.17;;;22.47;;
8964;SDS011;4517;49.020;12.066;2024-02-28T09:06:06;25.60;;;22.90;;
8964;SDS011;4517;49.020;12.066;2024-02-28T09:08:32;26.70;;;22.60;;
8964;SDS011;4517;49.020;12.066;2024-02-28T09:10:58;26.77;;;22.80;;
8964;SDS011;4517;49.020;12.066;2024-02-28T09:13:26;26.27;;;22.80;;
8964;SDS011;4517;49.020;12.066;2024-02-28T09:15:52;26.20;;;23.30;;
8964;SDS011;4517;49.020;12.066;2024-02-28T09:18:18;24.70;;;22.10;;
8964;SDS011;4517;49.020;12.066;2024-02-28T09:20:44;26.17;;;21.97;;
8964;SDS011;4517;49.020;12.066;2024-02-28T09:23:10;25.93;;;23.13;;
8964;SDS011;4517;49.020;12.066;2024-02-28T09:25:36;26.10;;;23.30;;
8964;SDS011;4517;49.020;12.066;2024-02-28T09:28:02;27.70;;;23.43;;
8964;SDS011;4517;49.020;12.066;2024-02-28T09:30:28;24.60;;;22.00;;
8964;SDS011;4517;49.020;12.066;2024-02-28T09:32:54;26.60;;;23.90;;
8964;SDS011;4517;49.020;12.066;2024-02-28T09:35:20;27.10;;;23.37;;
8964;SDS011;4517;49.020;12.066;2024-02-28T09:37:46;26.30;;;23.50;;
8964;SDS011;4517;49.020;12.066;2024-02-28T09:40:12;24.47;;;21.97;;
8964;SDS011;4517;49.020;12.066;2024-02-28T09:42:38;27.23;;;23.37;;
8964;SDS011;4517;49.020;12.066;2024-02-28T09:45:04;25.67;;;22.83;;
8964;SDS011;4517;49.020;12.066;2024-02-28T09:47:34;25.30;;;22.60;;
8964;SDS011;4517;49.020;12.066;2024-02-28T09:50:00;26.23;;;23.50;;
8964;SDS011;4517;49.020;12.066;2024-02-28T09:52:27;28.63;;;24.90;;
8964;SDS011;4517;49.020;12.066;2024-02-28T09:54:53;25.97;;;23.40;;
8964;SDS011;4517;49.020;12.066;2024-02-28T09:57:19;27.50;;;22.97;;
8964;SDS011;4517;49.020;12.066;2024-02-28T09:59:48;31.10;;;25.30;;
8964;SDS011;4517;49.020;12.066;2024-02-28T10:02:15;26.30;;;23.33;;
8964;SDS011;4517;49.020;12.066;2024-02-28T10:04:43;25.90;;;23.13;;
8964;SDS011;4517;49.020;12.066;2024-02-28T10:07:12;27.67;;;23.83;;
8964;SDS011;4517;49.020;12.066;2024-02-28T10:09:39;25.20;;;22.40;;
8964;SDS011;4517;49.020;12.066;2024-02-28T10:12:05;26.90;;;23.87;;
8964;SDS011;4517;49.020;12.066;2024-02-28T10:14:31;31.43;;;24.40;;
8964;SDS011;4517;49.020;12.066;2024-02-28T10:16:57;26.40;;;23.70;;
8964;SDS011;4517;49.020;12.066;2024-02-28T10:19:23;28.97;;;25.10;;
8964;SDS011;4517;49.020;12.066;2024-02-28T10:21:50;30.27;;;24.37;;
8964;SDS011;4517;49.020;12.066;2024-02-28T10:24:16;28.80;;;24.07;;
8964;SDS011;4517;49.020;12.066;2024-02-28T10:26:42;30.10;;;22.97;;
8964;SDS011;4517;49.020;12.066;2024-02-28T10:29:08;32.27;;;25.20;;
8964;SDS011;4517;49.020;12.066;2024-02-28T10:31:35;27.17;;;24.33;;
8964;SDS011;4517;49.020;12.066;2024-02-28T10:34:01;26.13;;;23.40;;
8964;SDS011;4517;49.020;12.066;2024-02-28T10:36:27;26.97;;;23.20;;
8964;SDS011;4517;49.020;12.066;2024-02-28T10:38:55;30.03;;;26.27;;
8964;SDS011;4517;49.020;12.066;2024-02-28T10:41:21;29.57;;;24.87;;
8964;SDS011;4517;49.020;12.066;2024-02-28T10:43:48;33.80;;;25.70;;
8964;SDS011;4517;49.020;12.066;2024-02-28T10:46:14;30.00;;;25.20;;
8964;SDS011;4517;49.020;12.066;2024-02-28T10:48:40;28.90;;;25.80;;
8964;SDS011;4517;49.020;12.066;2024-02-28T10:51:06;32.90;;;26.50;;
8964;SDS011;4517;49.020;12.066;2024-02-28T10:53:36;27.00;;;23.67;;
8964;SDS011;4517;49.020;12.066;2024-02-28T10:56:06;28.73;;;24.80;;
8964;SDS011;4517;49.020;12.066;2024-02-28T10:58:36;29.00;;;25.07;;
8964;SDS011;4517;49.020;12.066;2024-02-28T11:01:02;26.70;;;24.10;;
8964;SDS011;4517;49.020;12.066;2024-02-28T11:03:28;27.23;;;23.17;;
8964;SDS011;4517;49.020;12.066;2024-02-28T11:05:56;30.83;;;24.07;;
8964;SDS011;4517;49.020;12.066;2024-02-28T11:08:22;29.80;;;24.80;;
8964;SDS011;4517;49.020;12.066;2024-02-28T11:10:58;26.27;;;23.57;;
8964;SDS011;4517;49.020;12.066;2024-02-28T11:13:25;28.90;;;24.43;;
8964;SDS011;4517;49.020;12.066;2024-02-28T11:15:52;28.20;;;24.43;;
8964;SDS011;4517;49.020;12.066;2024-02-28T11:18:18;28.20;;;25.30;;
8964;SDS011;4517;49.020;12.066;2024-02-28T11:20:44;29.00;;;24.70;;
8964;SDS011;4517;49.020;12.066;2024-02-28T11:23:13;26.00;;;22.37;;
8964;SDS011;4517;49.020;12.066;2024-02-28T11:25:42;28.33;;;25.47;;
8964;SDS011;4517;49.020;12.066;2024-02-28T11:28:09;27.47;;;24.57;;
8964;SDS011;4517;49.020;12.066;2024-02-28T11:30:35;27.63;;;23.83;;
8964;SDS011;4517;49.020;12.066;2024-02-28T11:33:01;30.27;;;27.30;;
8964;SDS011;4517;49.020;12.066;2024-02-28T11:35:27;26.87;;;23.97;;
8964;SDS011;4517;49.020;12.066;2024-02-28T11:37:54;26.90;;;24.10;;
8964;SDS011;4517;49.020;12.066;2024-02-28T11:40:23;23.50;;;21.10;;
8964;SDS011;4517;49.020;12.066;2024-02-28T11:42:53;26.57;;;23.67;;
8964;SDS011;4517;49.020;12.066;2024-02-28T11:45:19;25.70;;;23.00;;
8964;SDS011;4517;49.020;12.066;2024-02-28T11:47:45;27.20;;;23.77;;
8964;SDS011;4517;49.020;12.066;2024-02-28T11:50:12;27.97;;;23.40;;
8964;SDS011;4517;49.020;12.066;2024-02-28T11:52:39;26.20;;;22.73;;
8964;SDS011;4517;49.020;12.066;2024-02-28T11:55:05;31.67;;;25.23;;
8964;SDS011;4517;49.020;12.066;2024-02-28T11:57:31;26.70;;;23.20;;
8964;SDS011;4517;49.020;12.066;2024-02-28T12:00:02;30.00;;;24.67;;
8964;SDS011;4517;49.020;12.066;2024-02-28T12:02:29;30.53;;;24.30;;
8964;SDS011;4517;49.020;12.066;2024-02-28T12:04:59;28.70;;;24.13;;
8964;SDS011;4517;49.020;12.066;2024-02-28T12:07:25;27.43;;;22.90;;
8964;SDS011;4517;49.020;12.066;2024-02-28T12:09:53;24.87;;;22.17;;
8964;SDS011;4517;49.020;12.066;2024-02-28T12:12:19;25.53;;;23.07;;
8964;SDS011;4517;49.020;12.066;2024-02-28T12:14:45;26.67;;;23.23;;
8964;SDS011;4517;49.020;12.066;2024-02-28T12:17:13;24.10;;;21.63;;
8964;SDS011;4517;49.020;12.066;2024-02-28T12:19:39;24.97;;;22.30;;
8964;SDS011;4517;49.020;12.066;2024-02-28T12:22:05;25.17;;;22.67;;
8964;SDS011;4517;49.020;12.066;2024-02-28T12:24:32;24.57;;;22.17;;
8964;SDS011;4517;49.020;12.066;2024-02-28T12:26:58;25.03;;;22.53;;
8964;SDS011;4517;49.020;12.066;2024-02-28T12:29:24;24.60;;;22.10;;
8964;SDS011;4517;49.020;12.066;2024-02-28T12:31:50;25.40;;;22.80;;
8964;SDS011;4517;49.020;12.066;2024-02-28T12:34:16;24.27;;;21.90;;
8964;SDS011;4517;49.020;12.066;2024-02-28T12:36:42;25.57;;;22.97;;
8964;SDS011;4517;49.020;12.066;2024-02-28T12:39:08;27.20;;;23.23;;
8964;SDS011;4517;49.020;12.066;2024-02-28T12:41:37;27.40;;;24.23;;
8964;SDS011;4517;49.020;12.066;2024-02-28T12:44:03;28.93;;;22.40;;
8964;SDS011;4517;49.020;12.066;2024-02-28T12:46:29;25.93;;;22.90;;
8964;SDS011;4517;49.020;12.066;2024-02-28T12:48:55;26.03;;;23.33;;
8964;SDS011;4517;49.020;12.066;2024-02-28T12:51:40;30.80;;;25.83;;
8964;SDS011;4517;49.020;12.066;2024-02-28T12:54:07;28.20;;;25.30;;
8964;SDS011;4517;49.020;12.066;2024-02-28T12:56:34;29.47;;;26.60;;
8964;SDS011;4517;49.020;12.066;2024-02-28T12:59:00;26.00;;;23.30;;
8964;SDS011;4517;49.020;12.066;2024-02-28T13:01:26;26.77;;;23.97;;
8964;SDS011;4517;49.020;12.066;2024-02-28T13:03:53;26.50;;;23.70;;
8964;SDS011;4517;49.020;12.066;2024-02-28T13:06:19;30.73;;;27.63;;
8964;SDS011;4517;49.020;12.066;2024-02-28T13:08:45;26.17;;;23.43;;
8964;SDS011;4517;49.020;12.066;2024-02-28T13:11:16;27.63;;;23.03;;
8964;SDS011;4517;49.020;12.066;2024-02-28T13:13:42;24.77;;;22.20;;
8964;SDS011;4517;49.020;12.066;2024-02-28T13:16:08;26.20;;;23.30;;
8964;SDS011;4517;49.020;12.066;2024-02-28T13:18:34;28.33;;;23.87;;
8964;SDS011;4517;49.020;12.066;2024-02-28T13:21:00;29.50;;;23.60;;
8964;SDS011;4517;49.020;12.066;2024-02-28T13:23:26;26.80;;;24.03;;
8964;SDS011;4517;49.020;12.066;2024-02-28T13:25:53;27.53;;;24.60;;
8964;SDS011;4517;49.020;12.066;2024-02-28T13:28:19;29.57;;;25.30;;
8964;SDS011;4517;49.020;12.066;2024-02-28T13:30:45;25.93;;;23.33;;
8964;SDS011;4517;49.020;12.066;2024-02-28T13:33:11;28.60;;;23.83;;
8964;SDS011;4517;49.020;12.066;2024-02-28T13:35:37;25.87;;;23.27;;
8964;SDS011;4517;49.020;12.066;2024-02-28T13:38:03;28.63;;;24.50;;
8964;SDS011;4517;49.020;12.066;2024-02-28T13:40:29;26.67;;;23.93;;
8964;SDS011;4517;49.020;12.066;2024-02-28T13:42:55;24.30;;;21.70;;
8964;SDS011;4517;49.020;12.066;2024-02-28T13:45:22;23.67;;;21.53;;
8964;SDS011;4517;49.020;12.066;2024-02-28T13:47:48;25.50;;;23.03;;
8964;SDS011;4517;49.020;12.066;2024-02-28T13:50:14;25.77;;;23.27;;
8964;SDS011;4517;49.020;12.066;2024-02-28T13:52:40;26.27;;;23.63;;
8964;SDS011;4517;49.020;12.066;2024-02-28T13:55:07;25.33;;;22.83;;
8964;SDS011;4517;49.020;12.066;2024-02-28T13:57:34;26.63;;;23.93;;
8964;SDS011;4517;49.020;12.066;2024-02-28T14:00:00;24.17;;;21.73;;
8964;SDS011;4517;49.020;12.066;2024-02-28T14:02:26;25.10;;;22.57;;
8964;SDS011;4517;49.020;12.066;2024-02-28T14:04:53;25.47;;;22.80;;
8964;SDS011;4517;49.020;12.066;2024-02-28T14:07:19;25.60;;;23.00;;
8964;SDS011;4517;49.020;12.066;2024-02-28T14:09:45;26.70;;;24.10;;
8964;SDS011;4517;49.020;12.066;2024-02-28T14:12:11;27.23;;;24.73;;
8964;SDS011;4517;49.020;12.066;2024-02-28T14:14:37;27.10;;;24.57;;
8964;SDS011;4517;49.020;12.066;2024-02-28T14:17:04;25.70;;;23.27;;
8964;SDS011;4517;49.020;12.066;2024-02-28T14:19:30;26.40;;;23.77;;
8964;SDS011;4517;49.020;12.066;2024-02-28T14:21:56;28.90;;;25.70;;
8964;SDS011;4517;49.020;12.066;2024-02-28T14:24:22;26.43;;;23.80;;
8964;SDS011;4517;49.020;12.066;2024-02-28T14:26:48;25.93;;;23.40;;
8964;SDS011;4517;49.020;12.066;2024-02-28T14:29:14;29.20;;;24.57;;